Aérodrome :
LOGIN :

S'inscrire | Disclaimer

   EN    FR    IT 

 










Légende :    VFR   VFR Marginal   IFR   IFR Intensif   IFR Très Intensif
Visi : 
Plafond : 
>= 8 km
>= 3000ft
5 à 8 km
1000 à 3000 ft
1500m à 5 km
500 à 1000 ft
800 à 1500m
200 à 500 ft
< 800m
< 200 ft
Symboles :   Orages  Brouillard  Fortes neiges  Fortes précipitations  Vent > 20 kt
SIGMETs :   Divers  Orages  Givrage  Turbulence  Onde Orograph.  Cendres Volcan.






- Altitude de l'aérodrome : 38 ft
- Code IATA : TRE


EGPU - Tiree

DERNIER METAR :
  • 072120Z AUTO 22026KT 190V250 3400 RA OVC005/// 11/11 Q0981

METARs EXPIRÉS :
  • 072050Z AUTO 22028G38KT 190V250 3600 -RA OVC006/// 11/11 Q0982
  • 072020Z AUTO 22027G37KT 180V250 5000 RA BKN005/// BKN012/// 11/11 Q0983
  • 071950Z AUTO 21026G37KT 180V250 2800 RA BKN005/// BKN012/// 11/10 Q0984
  • 071920Z AUTO 21023G34KT 180V250 3400 RA BKN006/// BKN013/// 11/10 Q0985
  • 071850Z AUTO 20025KT 3600 RA BKN006/// BKN014/// 11/10 Q0986

Prévision TAF périmée.



MET'MAP, la Météo Aéronautique d'un coup d'oeil ! - Copyright ORBIFLY Décembre 2007 - Disclaimer

ORBIFLY MET'MAP TEAM :

Programmation & Développement : Alexandra Zaïnal
Sur une idée originale de : Baudouin d'Aumeries
Assistance à la programmation : Marc-Olivier Méhu
Soutien technique & logistique : Manuel Goepfert

Contact : metmap@orbifly.com




SOURCES & CREDITS :

   NOAA